Townsville, North Carolina
Current Conditions -  °F | °C
As of 12:15 AM on Tuesday 21 Oct 2014 (Local Time) from KW63 Reporting Station
Overcast Overcast  
Wind Chill: 54°   Ceiling: 8500
Heat Index: 54°   Visibility: 10mi
Dew Point: 50°   Wind: 3mph
Humidity: 88%   Direction: 200°SSW
Pressure: 29.96"   Gusts: NA
Location:  36.5°N, 78.42°W
Report Text: KW63 210415Z AUTO 20003KT 10SM BKN085 OVC110 12/10 A2996 RMK AO1
Loading
Personal Weather Stations






























Interactive Weather Map
Tropical Storm Tracking
New forecast layout! Learn more

10-Day Weather Forecast

Advertisements
Track Severe Weather on mobile